Time;durP1;ratioP1;P1;durP2;ratioP2;P2;SDS_P1;SDS_P2;PMS_P1;PMS_P2;Temp;Humidity;BMP_temperature;BMP_pressure;BME280_temperature;BME280_humidity;BME280_pressure;Samples;Min_cycle;Max_cycle;Signal;HPM_P1;HPM_P2
2023/05/08 00:00:08;;;;;;;68.38;37.35;;;;;;;17.31;69.88;102170.41;4965099;28;20045;-80
2023/05/08 00:02:33;;;;;;;66.78;36.88;;;;;;;17.19;70.70;102178.22;4963662;28;20105;-80
2023/05/08 00:05:05;;;;;;;61.63;34.88;;;;;;;17.36;69.72;102170.44;4966752;28;20045;-81
2023/05/08 00:07:31;;;;;;;62.50;34.60;;;;;;;17.43;69.48;102173.13;4967777;28;20046;-81
2023/05/08 00:09:56;;;;;;;62.75;34.53;;;;;;;17.41;69.50;102174.84;4963826;28;20037;-80
2023/05/08 00:12:21;;;;;;;62.28;35.17;;;;;;;17.32;69.88;102177.41;4967060;28;20035;-81
2023/05/08 00:14:56;;;;;;;65.53;34.42;;;;;;;17.41;69.38;102171.31;4961282;28;20085;-80
2023/05/08 00:17:21;;;;;;;;;;;;;;;17.21;69.98;102178.22;4967665;28;20086;-80
2023/05/08 00:19:56;;;;;;;67.68;35.85;;;;;;;17.16;70.35;102172.03;4961373;28;20331;-80
2023/05/08 00:22:21;;;;;;;66.55;36.30;;;;;;;17.18;70.13;102170.31;4968398;28;20035;-83
2023/05/08 00:24:47;;;;;;;67.85;36.47;;;;;;;17.17;70.14;102174.69;4964498;28;20100;-82
2023/05/08 00:27:12;;;;;;;62.58;34.35;;;;;;;17.18;69.84;102170.31;4970043;28;20518;-82
2023/05/08 00:29:39;;;;;;;65.60;34.97;;;;;;;17.17;69.84;102176.44;4963175;28;20038;-82
2023/05/08 00:32:05;;;;;;;68.43;35.45;;;;;;;17.13;70.00;102169.41;4980844;28;20031;-80
2023/05/08 00:34:30;;;;;;;68.13;35.22;;;;;;;17.18;69.69;102173.81;4981790;23;20551;-41
2023/05/08 00:36:56;;;;;;;61.47;34.15;;;;;;;17.15;69.51;102176.41;4978852;28;20097;-43
2023/05/08 00:39:21;;;;;;;63.65;34.08;;;;;;;17.14;69.31;102179.06;4974223;28;20066;-43
2023/05/08 00:41:47;;;;;;;69.55;36.20;;;;;;;17.07;69.86;102182.53;4959562;28;20125;-43
2023/05/08 00:44:12;;;;;;;59.55;34.60;;;;;;;17.04;69.77;102181.63;4963141;28;20490;-44
2023/05/08 00:46:39;;;;;;;59.95;33.40;;;;;;;17.03;69.72;102185.13;4959232;28;20042;-44
2023/05/08 00:49:05;;;;;;;64.43;35.20;;;;;;;16.98;69.60;102180.69;4964500;28;20023;-44
2023/05/08 00:51:31;;;;;;;65.85;35.20;;;;;;;16.96;70.04;102179.78;4964790;28;20119;-45
2023/05/08 00:53:57;;;;;;;68.10;35.55;;;;;;;16.63;71.45;102177.75;4959699;28;20063;-44
2023/05/08 00:56:23;;;;;;;67.65;35.88;;;;;;;16.79;71.21;102176.13;4963348;28;20031;-46
2023/05/08 00:58:50;;;;;;;67.00;35.17;;;;;;;16.92;70.48;102178.00;4959847;28;20035;-43
2023/05/08 01:01:15;;;;;;;69.72;36.55;;;;;;;16.81;71.01;102177.03;4963635;28;20030;-43
2023/05/08 01:03:42;;;;;;;66.05;35.50;;;;;;;16.88;70.51;102176.22;4960545;28;20481;-44
2023/05/08 01:06:08;;;;;;;74.03;37.03;;;;;;;16.45;72.32;102177.56;4963534;28;20138;-43
2023/05/08 01:08:33;;;;;;;70.65;36.20;;;;;;;16.74;71.34;102185.75;4959850;28;20557;-47
2023/05/08 01:11:11;;;;;;;68.18;35.90;;;;;;;16.73;70.91;102174.34;4965239;28;20038;-45
2023/05/08 01:13:57;;;;;;;70.53;35.70;;;;;;;16.74;70.92;102170.84;4960055;28;20617;-45
2023/05/08 01:16:38;;;;;;;64.60;34.60;;;;;;;16.83;70.63;102175.31;4964159;28;20370;-45
2023/05/08 01:19:31;;;;;;;61.65;32.22;;;;;;;16.81;70.12;102174.41;4960254;28;20034;-44
2023/05/08 01:22:17;;;;;;;63.25;32.80;;;;;;;16.73;70.37;102183.97;4961045;28;20035;-45
2023/05/08 01:24:57;;;;;;;65.55;33.78;;;;;;;16.69;70.48;102188.34;4960589;28;20506;-43
2023/05/08 01:28:05;;;;;;;60.85;33.42;;;;;;;16.73;70.12;102181.34;4964055;28;20445;-43
2023/05/08 01:30:40;;;;;;;60.03;32.88;;;;;;;16.71;70.44;102180.47;4961677;28;20089;-43
2023/05/08 01:33:29;;;;;;;68.38;34.03;;;;;;;16.61;70.46;102185.66;4961241;28;20471;-44
2023/05/08 01:36:36;;;;;;;68.32;35.00;;;;;;;16.44;71.18;102184.56;4958966;28;20042;-45
2023/05/08 01:39:16;;;;;;;72.03;34.60;;;;;;;16.36;71.96;102186.22;4958635;28;20034;-44
2023/05/08 01:41:47;;;;;;;71.47;35.17;;;;;;;16.35;72.44;102186.19;4959886;28;20065;-43
2023/05/08 01:44:17;;;;;;;70.78;34.63;;;;;;;16.43;71.92;102190.69;4963624;28;20078;-43
2023/05/08 01:46:52;;;;;;;74.63;35.08;;;;;;;16.45;71.81;102188.97;4959461;28;20062;-47
2023/05/08 01:49:33;;;;;;;71.53;33.92;;;;;;;16.45;71.73;102188.97;4962606;28;20498;-44
2023/05/08 01:52:04;;;;;;;68.60;34.25;;;;;;;16.43;72.06;102195.06;4960113;28;20504;-44
2023/05/08 01:54:38;;;;;;;66.50;33.08;;;;;;;16.47;71.41;102199.50;4962764;28;20031;-43
2023/05/08 01:57:06;;;;;;;71.07;33.95;;;;;;;16.34;71.91;102195.00;4960978;28;20042;-44
2023/05/08 01:59:34;;;;;;;73.03;34.28;;;;;;;16.30;72.17;102199.31;4968355;28;20441;-43
2023/05/08 02:02:01;;;;;;;72.45;34.67;;;;;;;16.22;72.28;102199.22;4963864;28;20121;-46
2023/05/08 02:04:27;;;;;;;65.15;32.75;;;;;;;16.38;71.54;102204.69;4963322;28;20508;-45
2023/05/08 02:06:55;;;;;;;68.68;32.28;;;;;;;16.39;71.38;102204.69;4959328;28;20046;-45
2023/05/08 02:09:22;;;;;;;61.65;30.30;;;;;;;16.37;70.93;102201.16;4965592;28;20031;-43
2023/05/08 02:11:49;;;;;;;73.32;33.80;;;;;;;16.01;72.55;102206.88;4961185;28;20035;-42
2023/05/08 02:14:18;;;;;;;70.93;33.15;;;;;;;16.18;71.92;102207.97;4965805;28;20097;-43
2023/05/08 02:16:45;;;;;;;65.57;31.70;;;;;;;16.06;72.48;102204.31;4963393;28;20055;-42
2023/05/08 02:19:11;;;;;;;70.35;33.00;;;;;;;16.20;72.08;102200.09;4966077;28;20041;-46
2023/05/08 02:21:38;;;;;;;62.95;31.27;;;;;;;16.27;71.59;102201.06;4961420;28;20493;-43
2023/05/08 02:24:05;;;;;;;66.22;31.00;;;;;;;16.32;71.36;102199.34;4964351;28;20531;-43
2023/05/08 02:26:32;;;;;;;67.90;31.02;;;;;;;16.30;71.58;102199.31;4962609;28;20154;-43
2023/05/08 02:28:59;;;;;;;84.40;33.53;;;;;;;16.19;71.83;102200.94;4958557;28;20031;-47
2023/05/08 02:31:25;;;;;;;77.30;33.08;;;;;;;16.29;71.95;102199.28;4962286;28;20037;-43
2023/05/08 02:33:52;;;;;;;66.22;30.70;;;;;;;16.47;71.33;102204.75;4959055;28;20035;-43
2023/05/08 02:36:18;;;;;;;86.57;33.03;;;;;;;16.29;71.63;102208.06;4962226;28;20463;-43
2023/05/08 02:38:50;;;;;;;87.75;31.67;;;;;;;16.44;71.54;102210.00;4959493;28;20035;-42
2023/05/08 02:41:18;;;;;;;191.20;33.30;;;;;;;16.11;72.44;102210.50;4964219;28;20088;-48
2023/05/08 02:43:44;;;;;;;166.40;31.25;;;;;;;16.20;72.06;102200.09;4961474;28;20091;-45
2023/05/08 02:46:13;;;;;;;76.22;28.85;;;;;;;16.23;71.87;102200.13;4965715;28;20088;-44
2023/05/08 02:48:47;;;;;;;239.13;31.55;;;;;;;16.00;72.36;102201.59;4963367;28;20039;-45
2023/05/08 02:51:20;;;;;;;;;;;;;;;15.79;72.97;102204.84;4968997;28;20062;-41
2023/05/08 02:53:54;;;;;;;296.60;31.10;;;;;;;15.86;73.05;102200.56;4963378;28;19918;-43
2023/05/08 02:56:36;;;;;;;201.52;31.55;;;;;;;15.84;72.71;102205.78;4974925;28;20034;-44
2023/05/08 02:59:21;;;;;;;67.13;28.58;;;;;;;15.97;72.62;102196.31;4970386;28;20045;-43
2023/05/08 03:02:03;;;;;;;;;;;;;;;16.00;72.83;102201.59;4963178;28;20450;-46
2023/05/08 03:04:36;;;;;;;184.25;29.27;;;;;;;15.97;72.43;102194.56;4972173;28;20458;-44
2023/05/08 03:07:03;;;;;;;57.38;27.17;;;;;;;15.97;72.53;102188.44;4971741;28;20050;-43
2023/05/08 03:09:43;;;;;;;118.07;28.25;;;;;;;15.95;72.60;102183.13;4967123;28;20035;-42
2023/05/08 03:12:19;;;;;;;165.38;30.13;;;;;;;15.74;73.34;102188.09;4966532;28;20038;-42
2023/05/08 03:14:58;;;;;;;115.07;28.20;;;;;;;15.79;73.04;102187.34;4963501;28;20065;-42
2023/05/08 03:17:30;;;;;;;102.38;29.17;;;;;;;15.56;73.52;102191.38;4964643;28;20031;-44
2023/05/08 03:19:59;;;;;;;63.70;29.60;;;;;;;15.69;73.33;102193.31;4961396;28;20046;-45
2023/05/08 03:22:26;;;;;;;180.48;30.58;;;;;;;15.56;73.44;102190.50;4965141;28;20113;-45
2023/05/08 03:24:54;;;;;;;75.68;29.08;;;;;;;15.88;72.80;102189.19;4961113;28;20043;-44
2023/05/08 03:27:20;;;;;;;65.93;27.83;;;;;;;15.91;72.43;102191.88;4964838;28;20027;-42
2023/05/08 03:29:47;;;;;;;57.75;27.85;;;;;;;16.00;72.55;102193.72;4960829;28;20039;-44
2023/05/08 03:32:13;;;;;;;59.53;27.50;;;;;;;16.10;72.04;102190.34;4965083;28;20062;-41
2023/05/08 03:34:39;;;;;;;141.15;29.25;;;;;;;15.48;73.69;102192.13;4961106;28;20035;-42
2023/05/08 03:37:05;;;;;;;110.53;28.63;;;;;;;15.51;73.82;102193.03;4965835;28;20031;-42
2023/05/08 03:39:31;;;;;;;116.25;29.17;;;;;;;15.53;73.33;102188.72;4964935;28;20045;-42
2023/05/08 03:41:56;;;;;;;152.38;30.33;;;;;;;15.42;73.93;102183.28;4961444;28;20070;-43
2023/05/08 03:44:24;;;;;;;199.65;30.73;;;;;;;15.24;74.52;102180.41;4964616;28;20026;-44
2023/05/08 03:46:54;;;;;;;131.10;30.10;;;;;;;15.20;74.80;102181.19;4960717;28;20043;-42
2023/05/08 03:49:22;;;;;;;240.43;31.35;;;;;;;15.17;74.94;102185.53;4964684;28;20038;-45
2023/05/08 03:51:47;;;;;;;144.90;31.55;;;;;;;15.40;74.21;102176.22;4960503;28;20502;-43
2023/05/08 03:54:13;;;;;;;63.28;28.42;;;;;;;15.70;73.71;102173.16;4963785;28;20259;-44
2023/05/08 03:56:38;;;;;;;64.25;28.42;;;;;;;15.96;72.93;102171.75;4960602;28;20054;-44
2023/05/08 03:59:23;;;;;;;172.45;29.80;;;;;;;15.99;72.58;102174.41;4968052;28;20456;-44
2023/05/08 04:02:08;;;;;;;79.38;29.45;;;;;;;16.12;72.89;102171.06;4961109;28;20051;-44
2023/05/08 04:04:39;;;;;;;81.15;29.60;;;;;;;16.18;73.20;102173.75;4959665;28;20031;-44
2023/05/08 04:07:12;;;;;;;249.65;32.42;;;;;;;16.07;73.13;102177.13;4965021;28;20047;-44
2023/05/08 04:10:01;;;;;;;418.35;35.47;;;;;;;16.04;72.98;102177.13;4960348;28;20559;-43
2023/05/08 04:12:38;;;;;;;97.93;30.60;;;;;;;16.01;73.66;102177.94;4964925;28;20050;-43
2023/05/08 04:15:12;;;;;;;60.45;27.60;;;;;;;16.31;73.09;102181.78;4961635;28;20172;-43
2023/05/08 04:17:54;;;;;;;80.53;30.73;;;;;;;16.41;72.79;102186.25;4960209;28;20121;-43
2023/05/08 04:20:23;;;;;;;91.43;30.98;;;;;;;16.47;72.77;102189.84;4963449;28;20129;-44
2023/05/08 04:22:51;;;;;;;274.05;34.58;;;;;;;16.26;73.19;102189.63;4960638;28;20034;-43
2023/05/08 04:25:17;;;;;;;90.35;31.65;;;;;;;16.44;73.56;102191.56;4963574;28;20609;-45
2023/05/08 04:27:44;;;;;;;385.83;36.50;;;;;;;16.30;73.27;102198.44;4960822;28;20122;-42
2023/05/08 04:30:09;;;;;;;105.15;32.22;;;;;;;16.55;73.33;102189.94;4964676;28;20038;-42
2023/05/08 04:32:36;;;;;;;77.78;30.50;;;;;;;16.59;73.35;102196.97;4961606;28;20039;-46
2023/05/08 04:35:02;;;;;;;213.00;33.65;;;;;;;16.72;72.59;102200.66;4963373;28;20524;-42
2023/05/08 04:37:32;;;;;;;350.30;35.13;;;;;;;16.68;72.66;102198.88;4963107;28;20034;-43
2023/05/08 04:39:58;;;;;;;112.45;31.10;;;;;;;16.56;73.34;102199.59;4959081;28;20031;-43
2023/05/08 04:42:25;;;;;;;127.28;31.55;;;;;;;16.69;73.13;102201.53;4962998;28;20030;-44
2023/05/08 04:44:51;;;;;;;89.35;29.23;;;;;;;16.92;72.45;102199.09;4959882;28;20038;-44
2023/05/08 04:47:16;;;;;;;70.75;27.58;;;;;;;16.91;72.49;102200.81;4963659;28;20382;-43
2023/05/08 04:49:41;;;;;;;187.30;30.08;;;;;;;16.80;72.34;102196.34;4959323;28;20034;-44
2023/05/08 04:52:07;;;;;;;110.35;28.95;;;;;;;16.79;72.56;102198.09;4963016;28;20042;-44
2023/05/08 04:54:32;;;;;;;110.50;26.08;;;;;;;16.90;72.42;102204.31;4963575;28;20031;-44
2023/05/08 04:56:58;;;;;;;286.05;28.70;;;;;;;16.63;72.59;102204.97;4960252;28;20042;-47
2023/05/08 04:59:26;;;;;;;208.60;28.10;;;;;;;16.77;72.43;102210.34;4963017;28;20109;-41
2023/05/08 05:01:51;;;;;;;336.17;29.05;;;;;;;16.55;72.82;102205.72;4960009;28;20042;-41
2023/05/08 05:04:16;;;;;;;429.35;30.52;;;;;;;16.40;73.26;102211.72;4963189;28;20126;-43
2023/05/08 05:06:42;;;;;;;295.42;28.40;;;;;;;16.55;73.06;102211.88;4960381;28;20042;-45
2023/05/08 05:09:08;;;;;;;121.25;25.95;;;;;;;16.62;73.10;102213.75;4963132;28;20031;-44
2023/05/08 05:11:33;;;;;;;63.08;25.02;;;;;;;16.93;72.51;102221.94;4960653;28;20035;-43
2023/05/08 05:13:59;;;;;;;113.35;25.88;;;;;;;16.75;73.11;102232.28;4961040;28;20097;-46
2023/05/08 05:16:25;;;;;;;232.15;26.73;;;;;;;16.71;72.50;102230.50;4962981;28;20050;-44
2023/05/08 05:18:51;;;;;;;125.03;25.45;;;;;;;16.80;72.27;102230.59;4959449;28;20090;-45
2023/05/08 05:21:16;;;;;;;84.97;22.73;;;;;;;16.98;71.91;102238.66;4963182;28;20027;-43
2023/05/08 05:23:41;;;;;;;69.03;21.30;;;;;;;16.91;72.28;102240.34;4960621;28;20037;-44
2023/05/08 05:26:07;;;;;;;55.25;20.27;;;;;;;17.17;71.60;102235.31;4965988;28;20062;-45
2023/05/08 05:28:32;;;;;;;169.35;22.92;;;;;;;16.98;71.09;102243.91;4966644;28;20034;-43
2023/05/08 05:30:57;;;;;;;53.63;24.10;;;;;;;17.00;71.81;102250.09;4959461;28;20078;-44
2023/05/08 05:33:23;;;;;;;124.05;22.05;;;;;;;16.68;72.20;102248.91;4963252;28;20034;-43
2023/05/08 05:35:48;;;;;;;79.10;18.30;;;;;;;16.47;73.05;102249.50;4959035;28;20046;-43
2023/05/08 05:38:13;;;;;;;56.58;17.73;;;;;;;16.57;72.62;102249.66;4963009;28;20042;-45
2023/05/08 05:40:39;;;;;;;57.75;18.58;;;;;;;16.71;72.35;102257.69;4958709;28;20034;-44
2023/05/08 05:43:04;;;;;;;45.42;17.73;;;;;;;16.94;72.04;102258.84;4962958;28;20126;-43
2023/05/08 05:45:30;;;;;;;43.85;16.80;;;;;;;17.11;71.94;102258.09;4963008;28;20101;-43
2023/05/08 05:47:55;;;;;;;52.28;17.45;;;;;;;17.31;71.25;102260.03;4960291;28;20035;-43
2023/05/08 05:50:21;;;;;;;49.17;16.55;;;;;;;17.11;71.88;102266.88;4963114;28;20027;-43
2023/05/08 05:52:46;;;;;;;37.28;15.48;;;;;;;17.29;71.68;102266.13;4959787;28;20497;-45
2023/05/08 05:55:12;;;;;;;38.00;16.02;;;;;;;17.35;71.35;102268.81;4963188;28;20038;-45
2023/05/08 05:57:37;;;;;;;41.08;15.80;;;;;;;17.32;71.71;102261.75;4961017;28;20605;-44
2023/05/08 06:00:03;;;;;;;33.17;14.50;;;;;;;17.69;71.44;102272.59;4965509;28;20085;-42
2023/05/08 06:02:29;;;;;;;37.05;15.48;;;;;;;17.62;71.74;102262.91;4965882;28;20034;-48
2023/05/08 06:04:54;;;;;;;41.58;15.00;;;;;;;17.64;70.83;102267.31;4959558;28;20034;-42
2023/05/08 06:07:20;;;;;;;34.47;14.73;;;;;;;18.13;69.65;102268.44;4962439;28;20038;-43
2023/05/08 06:09:46;;;;;;;34.00;14.63;;;;;;;17.82;70.77;102263.88;4959876;28;20038;-46
2023/05/08 06:12:11;;;;;;;33.08;14.57;;;;;;;18.14;70.64;102275.50;4968224;28;20038;-43
2023/05/08 06:14:36;;;;;;;36.03;15.00;;;;;;;18.38;69.52;102268.56;4965196;28;20031;-49
2023/05/08 06:17:02;;;;;;;32.67;14.13;;;;;;;18.52;69.57;102270.38;4964638;28;20627;-43
2023/05/08 06:19:27;;;;;;;29.08;13.70;;;;;;;18.84;68.11;102269.59;4969850;28;20052;-43
2023/05/08 06:21:53;;;;;;;31.15;13.80;;;;;;;18.70;68.43;102273.97;4968797;28;20062;-47
2023/05/08 06:24:18;;;;;;;35.25;14.77;;;;;;;18.66;68.07;102274.84;4971993;28;20049;-45
2023/05/08 06:26:45;;;;;;;33.70;13.70;;;;;;;19.08;67.15;102276.66;4962836;28;20093;-44
2023/05/08 06:29:10;;;;;;;31.63;14.45;;;;;;;19.23;65.60;102266.06;4965665;28;20035;-44
2023/05/08 06:31:36;;;;;;;33.70;14.70;;;;;;;18.90;66.80;102274.88;4963265;28;20575;-43
2023/05/08 06:34:01;;;;;;;38.58;15.48;;;;;;;18.75;67.35;102269.56;4966354;28;20493;-42
2023/05/08 06:36:26;;;;;;;35.45;15.27;;;;;;;18.87;66.85;102272.22;4966406;28;20042;-47
2023/05/08 06:38:52;;;;;;;38.85;15.23;;;;;;;18.92;66.92;102268.72;4962347;28;20596;-42
2023/05/08 06:41:17;;;;;;;34.35;15.27;;;;;;;19.14;67.07;102259.03;4965677;28;20031;-47
2023/05/08 06:43:42;;;;;;;32.83;14.75;;;;;;;19.15;67.51;102260.78;4963573;28;20034;-44
2023/05/08 06:46:07;;;;;;;37.38;16.13;;;;;;;19.02;67.45;102262.56;4973334;28;20053;-46
2023/05/08 06:48:33;;;;;;;34.63;15.50;;;;;;;19.33;66.64;102252.84;4972150;28;20031;-65
2023/05/08 06:50:58;;;;;;;35.95;15.55;;;;;;;19.21;66.88;102265.22;4974683;23;20081;-80
2023/05/08 06:53:32;;;;;;;35.85;15.82;;;;;;;18.99;67.28;102259.03;4972517;28;20034;-80
2023/05/08 06:55:58;;;;;;;;;;;;;;;19.66;65.20;102259.91;4973274;28;20673;-78
2023/05/08 06:58:26;;;;;;;33.20;14.70;;;;;;;19.60;65.22;102264.31;4981416;28;19973;-81
2023/05/08 07:01:00;;;;;;;35.72;15.93;;;;;;;19.55;65.69;102258.16;4988219;28;20043;-82
2023/05/08 07:03:32;;;;;;;34.33;16.40;;;;;;;19.39;65.92;102258.13;4976616;28;20054;-80
2023/05/08 07:05:57;;;;;;;35.33;16.38;;;;;;;19.31;66.86;102261.69;4968449;28;20049;-79
2023/05/08 07:08:22;;;;;;;35.97;17.17;;;;;;;19.63;66.34;102254.63;4973432;28;20110;-79
2023/05/08 07:10:48;;;;;;;38.92;17.58;;;;;;;19.43;66.22;102246.69;4968339;28;20129;-78
2023/05/08 07:13:13;;;;;;;39.17;17.83;;;;;;;19.53;67.03;102251.97;4972424;28;20037;-82
2023/05/08 07:15:39;;;;;;;31.88;16.85;;;;;;;19.82;65.28;102248.38;4976232;28;20063;-80
2023/05/08 07:18:04;;;;;;;31.42;17.17;;;;;;;20.35;63.67;102239.38;4983011;28;20086;-79
2023/05/08 07:20:32;;;;;;;36.40;17.80;;;;;;;20.06;63.94;102242.16;4969824;28;20037;-80
2023/05/08 07:22:58;;;;;;;36.88;17.33;;;;;;;20.16;64.33;102235.03;4950150;28;20512;-80
2023/05/08 07:25:26;;;;;;;37.42;18.10;;;;;;;20.28;63.71;102237.63;4949156;28;20042;-80
2023/05/08 07:27:51;;;;;;;36.50;18.13;;;;;;;19.88;65.53;102246.63;4944352;28;20087;-80
2023/05/08 07:30:17;;;;;;;39.53;18.13;;;;;;;20.18;64.99;102246.50;4951057;28;20396;-80
2023/05/08 07:32:54;;;;;;;36.38;18.02;;;;;;;20.34;65.34;102242.03;4945615;28;20050;-79
2023/05/08 07:35:19;;;;;;;29.58;16.30;;;;;;;20.59;64.63;102249.84;4952078;28;20059;-80
2023/05/08 07:37:51;;;;;;;31.45;16.33;;;;;;;20.40;63.93;102248.19;4949857;28;20039;-78
2023/05/08 07:40:16;;;;;;;33.35;16.30;;;;;;;20.94;62.65;102246.06;4951468;28;20185;-79
2023/05/08 07:42:43;;;;;;;30.83;15.70;;;;;;;21.21;62.04;102245.88;4954883;28;20090;-79
2023/05/08 07:45:10;;;;;;;36.85;18.10;;;;;;;20.95;61.55;102243.41;4956606;28;20039;-79
2023/05/08 07:47:47;;;;;;;45.25;21.08;;;;;;;20.72;62.66;102242.69;4957292;28;20036;-79
2023/05/08 07:50:13;;;;;;;46.45;21.60;;;;;;;20.25;64.28;102253.50;4963864;28;20054;-79
2023/05/08 07:52:41;;;;;;;47.63;21.45;;;;;;;20.04;64.98;102248.31;4960606;28;20032;-80
2023/05/08 07:55:07;;;;;;;45.97;20.77;;;;;;;19.96;65.98;102250.97;4960003;28;20071;-79
2023/05/08 07:57:42;;;;;;;43.13;19.75;;;;;;;19.99;65.55;102248.34;4967343;28;20027;-80
2023/05/08 08:00:10;;;;;;;44.22;20.38;;;;;;;19.70;67.19;102251.06;4961098;28;20036;-78
2023/05/08 08:02:39;;;;;;;41.80;18.85;;;;;;;19.50;67.39;102252.00;4960054;28;20043;-79
2023/05/08 08:05:05;;;;;;;43.90;18.77;;;;;;;19.55;67.41;102259.03;4963849;28;20055;-80
2023/05/08 08:07:34;;;;;;;38.08;17.90;;;;;;;20.16;66.21;102259.75;4963270;28;20028;-78
2023/05/08 08:10:00;;;;;;;37.75;17.05;;;;;;;20.59;65.15;102259.56;4955693;28;20046;-78
2023/05/08 08:12:26;;;;;;;37.45;16.90;;;;;;;20.89;63.91;102253.16;4959128;28;20035;-78
2023/05/08 08:14:54;;;;;;;38.65;17.63;;;;;;;20.53;64.03;102254.28;4959604;28;20119;-78
2023/05/08 08:17:20;;;;;;;35.85;16.33;;;;;;;20.96;64.01;102257.53;4962265;28;20043;-81
2023/05/08 08:19:45;;;;;;;34.90;16.48;;;;;;;21.31;61.73;102250.19;4976921;28;20094;-79
2023/05/08 08:22:11;;;;;;;38.53;17.38;;;;;;;21.56;62.11;102253.50;4973716;28;20046;-78
2023/05/08 08:24:36;;;;;;;38.25;17.02;;;;;;;22.17;60.15;102259.03;4982574;28;20073;-78
2023/05/08 08:27:02;;;;;;;40.50;18.05;;;;;;;22.20;58.99;102250.16;4985877;28;20031;-80
2023/05/08 08:29:31;;;;;;;30.60;14.73;;;;;;;22.86;58.84;102247.47;4978236;28;20566;-78
2023/05/08 08:32:00;;;;;;;33.40;15.45;;;;;;;23.08;56.56;102242.66;4959996;28;20056;-79
2023/05/08 08:34:25;;;;;;;32.40;15.45;;;;;;;24.04;53.26;102236.41;4978712;28;20027;-78
2023/05/08 08:36:50;;;;;;;29.85;15.32;;;;;;;24.16;51.82;102247.69;4965968;28;20030;-79
2023/05/08 08:39:16;;;;;;;30.05;16.20;;;;;;;23.97;53.38;102250.81;4977106;28;20034;-79
2023/05/08 08:41:42;;;;;;;32.28;16.75;;;;;;;23.28;55.41;102244.09;4974366;28;20046;-79
2023/05/08 08:44:08;;;;;;;29.35;15.45;;;;;;;23.30;54.47;102249.34;4976642;28;20058;-80
2023/05/08 08:46:37;;;;;;;31.20;16.25;;;;;;;22.51;57.05;102251.47;4971260;28;20060;-81
2023/05/08 08:49:08;;;;;;;32.28;16.80;;;;;;;22.50;57.68;102252.38;4975840;28;20054;-80
2023/05/08 08:52:07;;;;;;;32.03;15.73;;;;;;;22.76;56.57;102248.47;4970839;28;20078;-78
2023/05/08 08:54:34;;;;;;;33.58;16.65;;;;;;;22.40;58.53;102247.19;4979892;28;20046;-79
2023/05/08 08:57:08;;;;;;;31.02;16.48;;;;;;;22.38;57.82;102247.25;4970788;28;20035;-79
2023/05/08 08:59:37;;;;;;;;;;;;;;;22.27;58.12;102246.47;4966788;28;20035;-78
2023/05/08 09:02:07;;;;;;;35.45;17.90;;;;;;;22.66;56.64;102237.09;4976191;28;19945;-79
2023/05/08 09:04:37;;;;;;;37.65;18.83;;;;;;;21.58;60.79;102235.78;4979970;28;20105;-83
2023/05/08 09:07:04;;;;;;;38.03;20.95;;;;;;;21.34;60.82;102241.34;4961776;28;20116;-78
2023/05/08 09:09:36;;;;;;;40.03;21.45;;;;;;;21.73;60.21;102240.91;4970778;28;20027;-79
2023/05/08 09:12:02;;;;;;;43.58;22.92;;;;;;;21.49;60.55;102246.47;4972455;28;20035;-80
2023/05/08 09:14:27;;;;;;;45.20;23.40;;;;;;;21.57;61.40;102246.41;4972488;28;20447;-78
2023/05/08 09:16:55;;;;;;;44.05;23.25;;;;;;;22.01;59.77;102248.63;4967974;28;21468;-80
2023/05/08 09:19:21;;;;;;;46.42;24.67;;;;;;;22.74;58.11;102245.88;4969602;28;20031;-79
2023/05/08 09:22:03;;;;;;;46.33;23.50;;;;;;;22.93;56.86;102243.81;4962105;28;20126;-80
2023/05/08 09:24:53;;;;;;;41.38;22.80;;;;;;;22.91;55.58;102249.13;4970955;28;20035;-80
2023/05/08 09:27:23;;;;;;;51.38;25.95;;;;;;;22.59;56.11;102241.63;4978938;28;20039;-80
2023/05/08 09:29:59;;;;;;;48.72;25.70;;;;;;;23.11;56.17;102243.50;4974200;28;20031;-78
2023/05/08 09:32:29;;;;;;;52.47;25.90;;;;;;;22.70;56.34;102236.13;4965871;28;20031;-79
2023/05/08 09:34:57;;;;;;;54.15;26.38;;;;;;;22.60;56.51;102246.03;4960915;28;20477;-78
2023/05/08 09:37:24;;;;;;;50.90;25.92;;;;;;;23.05;55.82;102241.78;4966682;28;20027;-80
2023/05/08 09:40:14;;;;;;;49.17;25.13;;;;;;;23.09;56.50;102239.09;4965350;28;20118;-79
2023/05/08 09:42:40;;;;;;;51.72;25.33;;;;;;;23.50;54.84;102247.25;4974081;28;20039;-78
2023/05/08 09:45:06;;;;;;;50.25;24.25;;;;;;;23.64;53.95;102245.22;4977788;28;20038;-80
2023/05/08 09:47:33;;;;;;;54.80;25.67;;;;;;;23.08;54.41;102242.66;4974354;28;20045;-78
2023/05/08 09:50:07;;;;;;;55.38;27.23;;;;;;;23.15;55.04;102245.19;4964387;28;20126;-79
2023/05/08 09:52:34;;;;;;;68.88;31.73;;;;;;;21.83;59.87;102247.88;4966311;28;20035;-79
2023/05/08 09:55:01;;;;;;;65.25;30.33;;;;;;;22.54;57.00;102243.47;4970021;28;20465;-79
2023/05/08 09:57:28;;;;;;;56.38;26.73;;;;;;;22.22;58.25;102249.22;4976658;28;20115;-78
2023/05/08 10:00:13;;;;;;;54.88;27.75;;;;;;;22.48;58.42;102238.25;4970510;28;20042;-81
2023/05/08 10:02:41;;;;;;;62.83;28.67;;;;;;;21.72;60.52;102243.59;4972792;28;20556;-79
2023/05/08 10:05:36;;;;;;;55.80;27.20;;;;;;;22.53;57.97;102244.34;4971722;28;20027;-80
2023/05/08 10:08:21;;;;;;;45.40;26.25;;;;;;;22.75;57.19;102236.97;4951514;28;20034;-79
2023/05/08 10:10:47;;;;;;;50.50;25.67;;;;;;;22.46;58.08;102241.81;4969861;28;20054;-79
2023/05/08 10:13:12;;;;;;;42.83;24.77;;;;;;;22.46;58.66;102245.34;4973230;28;20027;-79
2023/05/08 10:15:41;;;;;;;45.58;25.15;;;;;;;22.48;58.64;102238.25;4966261;28;20042;-78
2023/05/08 10:18:08;;;;;;;42.75;24.95;;;;;;;22.59;58.09;102241.63;4971184;28;20062;-80
2023/05/08 10:20:38;;;;;;;37.17;23.98;;;;;;;22.97;56.36;102238.41;4974926;28;20122;-80
2023/05/08 10:23:22;;;;;;;37.20;22.85;;;;;;;23.30;56.07;102233.38;4972349;28;20039;-79
2023/05/08 10:25:53;;;;;;;;;;;;;;;23.57;55.01;102240.91;4970435;28;20042;-79
2023/05/08 10:28:33;;;;;;;33.22;22.00;;;;;;;23.34;54.88;102240.44;4976256;28;20073;-77
2023/05/08 10:31:01;;;;;;;37.17;24.23;;;;;;;22.84;56.75;102239.50;4970836;28;20038;-81
2023/05/08 10:33:32;;;;;;;41.78;26.92;;;;;;;22.49;58.60;102241.78;4969449;28;20045;-81
2023/05/08 10:36:05;;;;;;;44.90;28.65;;;;;;;22.53;57.47;102244.34;4966345;28;20034;-79
2023/05/08 10:38:32;;;;;;;39.95;26.77;;;;;;;23.44;56.11;102240.22;4973096;28;20034;-80
2023/05/08 10:41:00;;;;;;;42.78;27.70;;;;;;;22.82;56.12;102243.94;4965865;28;20197;-81
2023/05/08 10:43:32;;;;;;;43.47;27.77;;;;;;;23.06;55.43;102232.91;4976039;28;20035;-81
2023/05/08 10:46:20;;;;;;;41.47;29.27;;;;;;;23.18;54.71;102231.81;4973059;28;20103;-81
2023/05/08 10:49:12;;;;;;;40.78;29.63;;;;;;;23.73;54.21;102233.50;4977075;28;20049;-79
2023/05/08 10:51:46;;;;;;;41.78;29.88;;;;;;;23.70;51.52;102230.91;4977670;28;20039;-79
2023/05/08 10:54:20;;;;;;;39.78;29.35;;;;;;;23.06;54.43;102226.72;4982901;28;20031;-78
2023/05/08 10:57:06;;;;;;;44.55;30.80;;;;;;;22.40;56.15;102232.13;4973846;28;20047;-77
2023/05/08 10:59:36;;;;;;;38.65;29.92;;;;;;;22.82;56.03;102228.00;4972213;28;20606;-79
2023/05/08 11:02:07;;;;;;;37.30;28.23;;;;;;;23.71;54.62;102227.34;4965121;28;20062;-78
2023/05/08 11:04:33;;;;;;;40.13;30.48;;;;;;;23.61;53.95;102223.97;4968311;28;20038;-77
2023/05/08 11:06:59;;;;;;;43.15;30.73;;;;;;;23.68;54.10;102227.41;4965361;28;20388;-78
2023/05/08 11:09:39;;;;;;;40.88;29.73;;;;;;;23.57;54.23;102222.28;4969320;28;20035;-79
2023/05/08 11:12:29;;;;;;;40.55;30.13;;;;;;;23.13;54.61;102212.41;4968799;28;20035;-78
2023/05/08 11:15:05;;;;;;;41.03;30.65;;;;;;;23.10;55.24;102214.25;4968344;28;20100;-78
2023/05/08 11:17:30;;;;;;;41.30;29.65;;;;;;;23.79;53.67;102220.06;4971475;28;20042;-78
2023/05/08 11:20:04;;;;;;;36.05;28.52;;;;;;;24.05;53.60;102209.75;4965103;28;20451;-79